createdAt,value
2023-07-22T00:00:25.773Z,-1
2023-07-22T00:01:25.814Z,-1
2023-07-22T00:02:25.858Z,-1
2023-07-22T00:04:25.770Z,-1
2023-07-22T00:05:25.763Z,-1
2023-07-22T00:06:26.059Z,-1
2023-07-22T00:07:25.785Z,-1
2023-07-22T00:09:25.780Z,-1
2023-07-22T00:10:25.759Z,-1
2023-07-22T00:11:25.761Z,-1
2023-07-22T00:12:25.756Z,-1
2023-07-22T00:13:25.766Z,-1
2023-07-22T00:14:25.761Z,-1
2023-07-22T00:15:27.928Z,-1
2023-07-22T00:16:30.835Z,-1
2023-07-22T00:18:25.760Z,-1
2023-07-22T00:19:25.752Z,-1
2023-07-22T00:20:25.744Z,-1
2023-07-22T00:21:25.753Z,-1
2023-07-22T00:22:25.780Z,-1
2023-07-22T00:24:25.775Z,-1
2023-07-22T00:25:25.755Z,-1
2023-07-22T00:26:25.927Z,-1
2023-07-22T00:27:25.785Z,-1
2023-07-22T00:28:25.777Z,-1
2023-07-22T00:29:25.757Z,-1
2023-07-22T00:30:27.155Z,-1
2023-07-22T00:32:25.781Z,-1
2023-07-22T00:34:25.756Z,-1
2023-07-22T00:35:25.763Z,-1
2023-07-22T00:36:27.856Z,-1
2023-07-22T00:37:30.635Z,-1
2023-07-22T00:39:25.766Z,-1
2023-07-22T00:40:25.751Z,-1
2023-07-22T00:41:25.761Z,-1
2023-07-22T00:42:25.770Z,-1
2023-07-22T00:43:25.754Z,-1
2023-07-22T00:45:26.027Z,-1
2023-07-22T00:47:25.796Z,-1
2023-07-22T00:48:25.778Z,-1
2023-07-22T00:50:25.774Z,-1
2023-07-22T00:51:25.760Z,-1
2023-07-22T00:52:25.779Z,-1
2023-07-22T00:53:25.773Z,-1
2023-07-22T00:55:25.755Z,-1
2023-07-22T00:56:26.058Z,-1
2023-07-22T00:57:27.725Z,-1
2023-07-22T00:58:30.763Z,-1
2023-07-22T01:00:25.791Z,-1
2023-07-22T01:01:25.795Z,-1
2023-07-22T01:02:25.790Z,-1
2023-07-22T01:03:25.818Z,-1
2023-07-22T01:04:25.754Z,-1
2023-07-22T01:05:25.753Z,-1
2023-07-22T01:06:26.114Z,-1
2023-07-22T01:07:25.765Z,-1
2023-07-22T01:08:25.769Z,-1
2023-07-22T01:09:25.771Z,-1
2023-07-22T01:10:25.778Z,-1
2023-07-22T01:12:25.768Z,-1
2023-07-22T01:13:25.766Z,-1
2023-07-22T01:14:25.766Z,-1
2023-07-22T01:15:25.765Z,-1
2023-07-22T01:17:27.243Z,-1
2023-07-22T01:18:27.797Z,-1
2023-07-22T01:19:30.854Z,-1
2023-07-22T01:21:25.758Z,-1
2023-07-22T01:22:25.749Z,-1
2023-07-22T01:23:25.764Z,-1
2023-07-22T01:25:26.159Z,-1
2023-07-22T01:27:25.752Z,-1
2023-07-22T01:28:25.771Z,-1
2023-07-22T01:30:25.810Z,-1
2023-07-22T01:31:25.752Z,-1
2023-07-22T01:32:25.773Z,-1
2023-07-22T01:33:25.774Z,-1
2023-07-22T01:35:25.752Z,-1
2023-07-22T01:36:25.938Z,-1
2023-07-22T01:37:25.753Z,-1
2023-07-22T01:38:25.785Z,-1
2023-07-22T01:39:27.912Z,-1
2023-07-22T01:40:30.968Z,-1
2023-07-22T01:42:25.752Z,-1
2023-07-22T01:43:25.755Z,-1
2023-07-22T01:44:25.749Z,-1
2023-07-22T01:45:25.765Z,-1
2023-07-22T01:46:26.087Z,-1
2023-07-22T01:48:25.758Z,-1
2023-07-22T01:49:25.766Z,-1
2023-07-22T01:50:25.760Z,-1
2023-07-22T01:51:25.759Z,-1
2023-07-22T01:52:25.754Z,-1
2023-07-22T01:53:25.767Z,-1
2023-07-22T01:54:25.787Z,-1
2023-07-22T01:55:25.755Z,-1
2023-07-22T01:56:26.033Z,-1
2023-07-22T01:57:25.762Z,-1
2023-07-22T01:58:25.760Z,-1
2023-07-22T01:59:25.751Z,-1
2023-07-22T02:00:27.992Z,-1
2023-07-22T02:01:31.388Z,-1
2023-07-22T02:03:25.827Z,-1
2023-07-22T02:04:25.791Z,-1
2023-07-22T02:05:25.758Z,-1
2023-07-22T02:06:26.169Z,-1
2023-07-22T02:07:25.899Z,-1
2023-07-22T02:09:25.765Z,-1
2023-07-22T02:10:25.756Z,-1
2023-07-22T02:11:25.753Z,-1
2023-07-22T02:12:25.751Z,-1
2023-07-22T02:13:25.786Z,-1
2023-07-22T02:14:25.842Z,-1
2023-07-22T02:16:26.013Z,-1
2023-07-22T02:17:25.793Z,-1
2023-07-22T02:18:25.812Z,-1
2023-07-22T02:20:25.748Z,-1
2023-07-22T02:21:27.625Z,-1
2023-07-22T02:22:31.177Z,-1
2023-07-22T02:24:25.794Z,-1
2023-07-22T02:25:25.774Z,-1
2023-07-22T02:27:25.761Z,-1
2023-07-22T02:28:25.942Z,-1
2023-07-22T02:30:25.755Z,-1
2023-07-22T02:31:25.788Z,-1
2023-07-22T02:32:25.773Z,-1
2023-07-22T02:34:25.777Z,-1
2023-07-22T02:36:26.233Z,-1
2023-07-22T02:38:25.751Z,-1
2023-07-22T02:39:25.766Z,-1
2023-07-22T02:41:25.772Z,-1
2023-07-22T02:42:25.774Z,-1
2023-07-22T02:43:28.578Z,-1
2023-07-22T02:44:31.621Z,-1
2023-07-22T02:46:25.994Z,-1
2023-07-22T02:47:25.787Z,-1
2023-07-22T02:48:25.754Z,-1
2023-07-22T02:49:25.749Z,-1
2023-07-22T02:50:25.758Z,-1
2023-07-22T02:51:25.754Z,-1
2023-07-22T02:52:25.758Z,-1
2023-07-22T02:53:25.777Z,-1
2023-07-22T02:54:25.757Z,-1
2023-07-22T02:56:26.072Z,-1
2023-07-22T02:58:25.753Z,-1
2023-07-22T02:59:25.767Z,-1
2023-07-22T03:00:25.764Z,-1
2023-07-22T03:01:25.918Z,-1
2023-07-22T03:03:25.888Z,-1
2023-07-22T03:04:28.725Z,-1
2023-07-22T03:05:31.686Z,-1
2023-07-22T03:07:25.751Z,-1
2023-07-22T03:08:25.748Z,-1
2023-07-22T03:09:25.753Z,-1
2023-07-22T03:10:25.776Z,-1
2023-07-22T03:11:25.748Z,-1
2023-07-22T03:12:25.759Z,-1
2023-07-22T03:13:25.762Z,-1
2023-07-22T03:14:25.759Z,-1
2023-07-22T03:15:25.756Z,-1
2023-07-22T03:16:26.213Z,-1
2023-07-22T03:17:25.761Z,-1
2023-07-22T03:18:25.753Z,-1
2023-07-22T03:19:25.755Z,-1
2023-07-22T03:20:25.765Z,-1
2023-07-22T03:21:25.776Z,-1
2023-07-22T03:22:25.742Z,-1
2023-07-22T03:23:25.753Z,-1
2023-07-22T03:24:25.920Z,-1
2023-07-22T03:25:28.784Z,-1
2023-07-22T03:26:31.744Z,-1
2023-07-22T03:28:25.752Z,-1
2023-07-22T03:29:25.766Z,-1
2023-07-22T03:30:25.766Z,-1
2023-07-22T03:31:25.781Z,-1
2023-07-22T03:32:25.788Z,-1
2023-07-22T03:34:25.755Z,-1
2023-07-22T03:35:25.758Z,-1
2023-07-22T03:36:25.947Z,-1
2023-07-22T03:37:25.762Z,-1
2023-07-22T03:38:25.752Z,-1
2023-07-22T03:39:25.761Z,-1
2023-07-22T03:40:25.753Z,-1
2023-07-22T03:41:25.752Z,-1
2023-07-22T03:42:25.759Z,-1
2023-07-22T03:43:25.765Z,-1
2023-07-22T03:45:26.065Z,-1
2023-07-22T03:46:29.376Z,-1
2023-07-22T03:47:31.774Z,-1
2023-07-22T03:49:25.754Z,-1
2023-07-22T03:50:25.752Z,-1
2023-07-22T03:51:25.769Z,-1
2023-07-22T03:52:25.758Z,-1
2023-07-22T03:53:25.760Z,-1
2023-07-22T03:54:25.758Z,-1
2023-07-22T03:55:25.761Z,-1
2023-07-22T03:56:25.987Z,-1
2023-07-22T03:58:25.757Z,-1
2023-07-22T03:59:25.749Z,-1
2023-07-22T04:00:25.765Z,-1
2023-07-22T04:01:26.038Z,-1
2023-07-22T04:03:25.830Z,-1
2023-07-22T04:04:25.753Z,-1
2023-07-22T04:05:25.785Z,-1
2023-07-22T04:06:26.338Z,-1
2023-07-22T04:07:28.904Z,-1
2023-07-22T04:08:32.043Z,-1
2023-07-22T04:10:25.751Z,-1
2023-07-22T04:11:25.791Z,-1
2023-07-22T04:13:25.751Z,-1
2023-07-22T04:14:25.745Z,-1
2023-07-22T04:15:25.767Z,-1
2023-07-22T04:16:26.182Z,-1
2023-07-22T04:18:25.754Z,-1
2023-07-22T04:19:25.760Z,-1
2023-07-22T04:20:25.760Z,-1
2023-07-22T04:21:25.761Z,-1
2023-07-22T04:22:25.774Z,-1
2023-07-22T04:24:25.825Z,-1
2023-07-22T04:26:26.090Z,-1
2023-07-22T04:27:26.203Z,-1
2023-07-22T04:28:28.994Z,-1
2023-07-22T04:29:31.976Z,-1
2023-07-22T04:31:25.788Z,-1
2023-07-22T04:32:25.821Z,-1
2023-07-22T04:34:25.757Z,-1
2023-07-22T04:35:25.754Z,-1
2023-07-22T04:36:26.074Z,-1
2023-07-22T04:37:25.772Z,-1
2023-07-22T04:38:25.812Z,-1
2023-07-22T04:40:25.763Z,-1
2023-07-22T04:41:25.761Z,-1
2023-07-22T04:42:25.785Z,-1
2023-07-22T04:44:25.766Z,-1
2023-07-22T04:45:25.755Z,-1
2023-07-22T04:46:26.125Z,-1
2023-07-22T04:47:25.822Z,-1
2023-07-22T04:48:26.285Z,-1
2023-07-22T04:49:29.159Z,-1
2023-07-22T04:50:32.134Z,-1
2023-07-22T04:52:25.789Z,-1
2023-07-22T04:53:25.768Z,-1
2023-07-22T04:54:25.748Z,-1
2023-07-22T04:55:25.765Z,-1
2023-07-22T04:56:26.004Z,-1
2023-07-22T04:57:25.775Z,-1
2023-07-22T04:59:25.925Z,-1
2023-07-22T05:01:25.749Z,-1
2023-07-22T05:02:25.792Z,-1
2023-07-22T05:03:25.829Z,-1
2023-07-22T05:04:25.775Z,-1
2023-07-22T05:06:26.081Z,-1
2023-07-22T05:07:25.748Z,-1
2023-07-22T05:08:25.770Z,-1
2023-07-22T05:09:26.341Z,-1
2023-07-22T05:10:29.216Z,-1
2023-07-22T05:11:31.679Z,-1
2023-07-22T05:13:25.778Z,-1
2023-07-22T05:14:25.762Z,-1
2023-07-22T05:15:25.763Z,-1
2023-07-22T05:16:26.133Z,-1
2023-07-22T05:18:25.779Z,-1
2023-07-22T05:20:25.749Z,-1
2023-07-22T05:21:25.754Z,-1
2023-07-22T05:22:25.764Z,-1
2023-07-22T05:23:25.763Z,-1
2023-07-22T05:25:25.765Z,-1
2023-07-22T05:26:26.074Z,-1
2023-07-22T05:28:25.755Z,-1
2023-07-22T05:29:25.756Z,-1
2023-07-22T05:30:34.725Z,-1
2023-07-22T05:31:29.360Z,-1
2023-07-22T05:32:34.301Z,-1
2023-07-22T05:34:25.763Z,-1
2023-07-22T05:35:25.760Z,-1
2023-07-22T05:36:26.060Z,-1
2023-07-22T05:37:25.854Z,-1
2023-07-22T05:39:25.753Z,-1
2023-07-22T05:40:25.774Z,-1
2023-07-22T05:41:25.923Z,-1
2023-07-22T05:43:25.774Z,-1
2023-07-22T05:45:25.742Z,-1
2023-07-22T05:46:26.059Z,-1
2023-07-22T05:47:25.781Z,-1
2023-07-22T05:48:25.756Z,-1
2023-07-22T05:49:25.760Z,-1
2023-07-22T05:50:25.753Z,-1
2023-07-22T05:51:26.467Z,-1
2023-07-22T05:52:29.357Z,-1
2023-07-22T05:53:32.286Z,-1
2023-07-22T05:55:25.761Z,-1
2023-07-22T05:56:25.941Z,-1
2023-07-22T05:58:25.759Z,-1
2023-07-22T05:59:25.771Z,-1
2023-07-22T06:00:25.773Z,-1
2023-07-22T06:01:25.841Z,-1
2023-07-22T06:03:25.794Z,-1
2023-07-22T06:04:25.758Z,-1
2023-07-22T06:05:25.761Z,-1
2023-07-22T06:06:25.773Z,-1
2023-07-22T06:07:25.762Z,-1
2023-07-22T06:08:25.747Z,-1
2023-07-22T06:09:25.743Z,-1
2023-07-22T06:10:25.824Z,-1
2023-07-22T06:11:25.758Z,-1
2023-07-22T06:13:29.453Z,-1
2023-07-22T06:14:32.416Z,-1
2023-07-22T06:16:25.975Z,-1
2023-07-22T06:17:25.803Z,-1
2023-07-22T06:18:25.764Z,-1
2023-07-22T06:19:25.748Z,-1
2023-07-22T06:20:25.804Z,-1
2023-07-22T06:21:25.741Z,-1
2023-07-22T06:22:25.902Z,-1
2023-07-22T06:24:25.798Z,-1
2023-07-22T06:25:25.763Z,-1
2023-07-22T06:26:25.929Z,-1
2023-07-22T06:27:25.748Z,-1
2023-07-22T06:28:25.746Z,-1
2023-07-22T06:29:25.757Z,-1
2023-07-22T06:30:25.764Z,-1
2023-07-22T06:31:25.760Z,-1
2023-07-22T06:32:25.796Z,-1
2023-07-22T06:33:26.595Z,-1
2023-07-22T06:34:29.525Z,-1
2023-07-22T06:35:32.421Z,-1
2023-07-22T06:37:25.749Z,-1
2023-07-22T06:39:25.754Z,-1
2023-07-22T06:40:25.759Z,-1
2023-07-22T06:41:25.776Z,-1
2023-07-22T06:42:25.772Z,-1
2023-07-22T06:44:25.757Z,-1
2023-07-22T06:45:25.797Z,-1
2023-07-22T06:46:26.081Z,-1
2023-07-22T06:47:25.796Z,-1
2023-07-22T06:49:25.760Z,-1
2023-07-22T06:50:25.771Z,-1
2023-07-22T06:52:25.791Z,-1
2023-07-22T06:53:25.744Z,-1
2023-07-22T06:54:26.631Z,-1
2023-07-22T06:55:29.515Z,-1
2023-07-22T06:56:32.594Z,-1
2023-07-22T06:58:25.758Z,-1
2023-07-22T07:00:25.758Z,-1
2023-07-22T07:01:25.784Z,-1
2023-07-22T07:02:25.804Z,-1
2023-07-22T07:04:25.774Z,-1
2023-07-22T07:06:25.750Z,-1
2023-07-22T07:07:25.748Z,-1
2023-07-22T07:08:25.744Z,-1
2023-07-22T07:09:25.774Z,-1
2023-07-22T07:10:25.767Z,-1
2023-07-22T07:11:25.753Z,-1
2023-07-22T07:12:25.738Z,-1
2023-07-22T07:13:25.744Z,-1
2023-07-22T07:14:25.764Z,-1
2023-07-22T07:15:26.687Z,-1
2023-07-22T07:16:29.837Z,-1
2023-07-22T07:17:32.778Z,-1
2023-07-22T07:19:25.763Z,-1
2023-07-22T07:20:25.758Z,-1
2023-07-22T07:21:25.751Z,-1
2023-07-22T07:22:25.779Z,-1
2023-07-22T07:24:25.765Z,-1
2023-07-22T07:25:25.746Z,-1
2023-07-22T07:26:25.933Z,-1
2023-07-22T07:27:25.751Z,-1
2023-07-22T07:28:25.752Z,-1
2023-07-22T07:29:45.263Z,-1
2023-07-22T07:31:25.796Z,-1
2023-07-22T07:32:25.833Z,-1
2023-07-22T07:33:25.745Z,-1
2023-07-22T07:34:25.753Z,-1
2023-07-22T07:35:25.757Z,-1
2023-07-22T07:36:26.981Z,-1
2023-07-22T07:37:29.878Z,-1
2023-07-22T07:38:32.441Z,-1
2023-07-22T07:40:25.794Z,-1
2023-07-22T07:41:25.783Z,-1
2023-07-22T07:43:25.755Z,-1
2023-07-22T07:44:25.756Z,-1
2023-07-22T07:45:25.739Z,-1
2023-07-22T07:46:25.911Z,-1
2023-07-22T07:47:25.935Z,-1
2023-07-22T07:48:26.014Z,-1
2023-07-22T07:50:25.792Z,-1
2023-07-22T07:51:25.766Z,-1
2023-07-22T07:53:25.759Z,-1
2023-07-22T07:54:25.757Z,-1
2023-07-22T07:55:25.758Z,-1
2023-07-22T07:56:26.080Z,-1
2023-07-22T07:57:26.879Z,-1
2023-07-22T07:58:29.845Z,-1
2023-07-22T07:59:32.772Z,-1
2023-07-22T08:01:25.788Z,-1
2023-07-22T08:03:25.776Z,-1
2023-07-22T08:04:25.748Z,-1
2023-07-22T08:05:25.777Z,-1
2023-07-22T08:06:26.136Z,-1
2023-07-22T08:08:25.751Z,-1
2023-07-22T08:09:25.782Z,-1
2023-07-22T08:10:25.919Z,-1
2023-07-22T08:12:25.764Z,-1
2023-07-22T08:13:25.751Z,-1
2023-07-22T08:14:25.780Z,-1
2023-07-22T08:15:25.759Z,-1
2023-07-22T08:16:25.984Z,-1
2023-07-22T08:17:25.770Z,-1
2023-07-22T08:18:28.938Z,-1
2023-07-22T08:19:29.871Z,-1
2023-07-22T08:20:32.851Z,-1
2023-07-22T08:22:25.853Z,-1
2023-07-22T08:24:25.785Z,-1
2023-07-22T08:25:25.790Z,-1
2023-07-22T08:27:25.743Z,-1
2023-07-22T08:28:25.744Z,-1
2023-07-22T08:29:25.743Z,-1
2023-07-22T08:30:25.769Z,-1
2023-07-22T08:32:25.816Z,-1
2023-07-22T08:33:35.474Z,-1
2023-07-22T08:34:25.750Z,-1
2023-07-22T08:35:25.765Z,-1
2023-07-22T08:37:25.752Z,-1
2023-07-22T08:38:25.753Z,-1
2023-07-22T08:39:27.089Z,-1
2023-07-22T08:40:30.292Z,-1
2023-07-22T08:41:32.951Z,-1
2023-07-22T08:43:25.954Z,-1
2023-07-22T08:45:25.764Z,-1
2023-07-22T08:46:25.921Z,-1
2023-07-22T08:47:25.790Z,-1
2023-07-22T08:48:25.765Z,-1
2023-07-22T08:50:25.760Z,-1
2023-07-22T08:51:25.769Z,-1
2023-07-22T08:52:25.784Z,-1
2023-07-22T08:54:25.996Z,-1
2023-07-22T08:56:25.972Z,-1
2023-07-22T08:57:25.772Z,-1
2023-07-22T08:59:25.743Z,-1
2023-07-22T09:00:26.583Z,-1
2023-07-22T09:01:29.636Z,-1
2023-07-22T09:02:33.170Z,-1
2023-07-22T09:04:25.750Z,-1
2023-07-22T09:05:25.752Z,-1
2023-07-22T09:06:26.062Z,-1
2023-07-22T09:07:25.747Z,-1
2023-07-22T09:08:25.763Z,-1
2023-07-22T09:09:25.769Z,-1
2023-07-22T09:10:26.184Z,-1
2023-07-22T09:11:25.774Z,-1
2023-07-22T09:12:25.747Z,-1
2023-07-22T09:13:25.760Z,-1
2023-07-22T09:14:34.856Z,-1
2023-07-22T09:16:26.088Z,-1
2023-07-22T09:17:25.775Z,-1
2023-07-22T09:18:25.761Z,-1
2023-07-22T09:19:25.756Z,-1
2023-07-22T09:20:25.754Z,-1
2023-07-22T09:21:27.212Z,-1
2023-07-22T09:22:31.066Z,-1
2023-07-22T09:23:33.203Z,-1
2023-07-22T09:25:25.739Z,-1
2023-07-22T09:26:26.130Z,-1
2023-07-22T09:27:25.773Z,-1
2023-07-22T09:29:25.789Z,-1
2023-07-22T09:31:25.847Z,-1
2023-07-22T09:32:25.763Z,-1
2023-07-22T09:33:27.231Z,-1
2023-07-22T09:34:25.776Z,-1
2023-07-22T09:35:25.844Z,-1
2023-07-22T09:37:25.758Z,-1
2023-07-22T09:38:25.910Z,-1
2023-07-22T09:39:25.770Z,-1
2023-07-22T09:40:25.772Z,-1
2023-07-22T09:41:25.752Z,-1
2023-07-22T09:42:27.286Z,-1
2023-07-22T09:43:30.226Z,-1
2023-07-22T09:44:33.299Z,-1
2023-07-22T09:46:27.113Z,-1
2023-07-22T09:47:25.857Z,-1
2023-07-22T09:48:25.870Z,-1
2023-07-22T09:49:25.757Z,-1
2023-07-22T09:50:25.750Z,-1
2023-07-22T09:52:26.059Z,30134.17
2023-07-22T09:54:25.756Z,28194.17
2023-07-22T09:55:25.744Z,21339.17
2023-07-22T09:56:26.113Z,20467.5
2023-07-22T09:57:25.766Z,21894.17
2023-07-22T09:58:25.744Z,24057.5
2023-07-22T09:59:25.741Z,19288.33
2023-07-22T10:00:25.749Z,18270.83
2023-07-22T10:01:25.802Z,19040
2023-07-22T10:02:25.783Z,21603.33
2023-07-22T10:03:25.805Z,22059.17
2023-07-22T10:04:27.328Z,22658.33
2023-07-22T10:05:29.887Z,30225.83
2023-07-22T10:06:32.937Z,30712.5
2023-07-22T10:08:25.764Z,26843.33
2023-07-22T10:09:25.772Z,36981.66
2023-07-22T10:10:25.769Z,42366.72
2023-07-22T10:12:25.810Z,34440.83
2023-07-22T10:13:25.802Z,27727.5
2023-07-22T10:14:26.480Z,35985.83
2023-07-22T10:16:25.940Z,32242.5
2023-07-22T10:17:25.814Z,33677.5
2023-07-22T10:18:25.881Z,36108.33
2023-07-22T10:20:25.771Z,24050
2023-07-22T10:21:25.751Z,32854.16
2023-07-22T10:23:25.747Z,25013.33
2023-07-22T10:24:25.754Z,22451.67
2023-07-22T10:25:27.509Z,31254.17
2023-07-22T10:26:45.064Z,43320.86
2023-07-22T10:27:32.900Z,24784.17
2023-07-22T10:29:25.754Z,26428.33
2023-07-22T10:30:25.782Z,21580
2023-07-22T10:32:25.790Z,31582.5
2023-07-22T10:34:25.786Z,17278.33
2023-07-22T10:35:25.784Z,17890.83
2023-07-22T10:37:25.760Z,18490
2023-07-22T10:38:25.754Z,20073.33
2023-07-22T10:39:25.756Z,27505
2023-07-22T10:40:25.758Z,26147.5
2023-07-22T10:42:25.775Z,28720
2023-07-22T10:43:25.758Z,20776.67
2023-07-22T10:44:25.757Z,20069.17
2023-07-22T10:45:25.750Z,20416.67
2023-07-22T10:46:27.619Z,18990
2023-07-22T10:47:30.504Z,18832.5
2023-07-22T10:49:25.781Z,18786.67
2023-07-22T10:50:25.756Z,18437.5
2023-07-22T10:51:25.783Z,18359.17
2023-07-22T10:53:25.772Z,20045
2023-07-22T10:55:25.770Z,23575
2023-07-22T10:56:26.191Z,23575
2023-07-22T10:57:25.766Z,23575
2023-07-22T10:58:25.753Z,23575
2023-07-22T10:59:25.757Z,23575
2023-07-22T11:00:25.744Z,23575
2023-07-22T11:01:25.919Z,23575
2023-07-22T11:02:25.782Z,23575
2023-07-22T11:03:25.764Z,23575
2023-07-22T11:04:25.758Z,27915.83
2023-07-22T11:05:25.773Z,27575
2023-07-22T11:06:25.918Z,26883.33
2023-07-22T11:07:27.648Z,23214.17
2023-07-22T11:08:30.546Z,22706.67
2023-07-22T11:10:25.755Z,23384.17
2023-07-22T11:11:25.932Z,24254.17
2023-07-22T11:12:25.751Z,20908.33
2023-07-22T11:13:27.597Z,19720.83
2023-07-22T11:14:25.745Z,19413.33
2023-07-22T11:15:25.761Z,19995.83
2023-07-22T11:16:26.156Z,23054.17
2023-07-22T11:17:25.768Z,21760.83
2023-07-22T11:18:25.760Z,21298.33
2023-07-22T11:19:25.783Z,21740
2023-07-22T11:20:25.750Z,25535
2023-07-22T11:21:25.775Z,22565.83
2023-07-22T11:22:25.764Z,23109.17
2023-07-22T11:23:25.764Z,27032.5
2023-07-22T11:24:25.803Z,19206.67
2023-07-22T11:25:25.758Z,18064.17
2023-07-22T11:26:25.897Z,17010.83
2023-07-22T11:27:25.753Z,17429.17
2023-07-22T11:28:27.682Z,16745.83
2023-07-22T11:29:30.604Z,16190
2023-07-22T11:30:25.779Z,15911.67
2023-07-22T11:31:25.770Z,16444.17
2023-07-22T11:32:25.769Z,17333.33
2023-07-22T11:33:25.765Z,18540.83
2023-07-22T11:35:25.748Z,19167.5
2023-07-22T11:36:25.972Z,19699.17
2023-07-22T11:37:25.757Z,18674.17
2023-07-22T11:38:25.759Z,17203.33
2023-07-22T11:40:25.749Z,38256.66
2023-07-22T11:42:25.773Z,56229.61
2023-07-22T11:43:25.804Z,58538.59
2023-07-22T11:44:25.753Z,50467.03
2023-07-22T11:45:25.773Z,61377.65
2023-07-22T11:47:25.804Z,62705.54
2023-07-22T11:49:27.582Z,18001.67
2023-07-22T11:50:30.612Z,35060
2023-07-22T11:52:25.764Z,60455.86
2023-07-22T11:53:25.764Z,58835.07
2023-07-22T11:54:25.754Z,19847.5
2023-07-22T11:55:35.137Z,57618.59
2023-07-22T11:56:25.754Z,15945.83
2023-07-22T11:57:25.772Z,15482.5
2023-07-22T11:59:25.749Z,11144.17
2023-07-22T12:00:25.744Z,10235
2023-07-22T12:01:25.960Z,43294.16
2023-07-22T12:02:25.797Z,52175.86
2023-07-22T12:04:25.758Z,54612.5
2023-07-22T12:05:25.750Z,15343.33
2023-07-22T12:06:25.745Z,17279.17
2023-07-22T12:08:25.756Z,17040.83
2023-07-22T12:09:25.762Z,16780.83
2023-07-22T12:10:27.666Z,16912.5
2023-07-22T12:11:30.770Z,59221.4
2023-07-22T12:12:25.745Z,53961.95
2023-07-22T12:13:25.749Z,56756.09
2023-07-22T12:14:25.751Z,58303.2
2023-07-22T12:15:25.765Z,58518.82
2023-07-22T12:17:25.914Z,58948.28
2023-07-22T12:19:25.749Z,14260.83
2023-07-22T12:20:25.769Z,19710
2023-07-22T12:22:25.748Z,51944.06
2023-07-22T12:23:25.737Z,58838.67
2023-07-22T12:24:25.756Z,58874.61
2023-07-22T12:25:25.772Z,57564.68
2023-07-22T12:27:25.757Z,55627.65
2023-07-22T12:28:25.750Z,54705.86
2023-07-22T12:30:25.750Z,14169.17
2023-07-22T12:31:28.031Z,11520
2023-07-22T12:32:30.839Z,11385
2023-07-22T12:34:25.848Z,13698.33
2023-07-22T12:35:25.852Z,14928.33
2023-07-22T12:37:25.928Z,24568.33
2023-07-22T12:38:25.947Z,14081.67
2023-07-22T12:40:26.087Z,25909.17
2023-07-22T12:42:26.025Z,19999.17
2023-07-22T12:44:25.773Z,20621.67
2023-07-22T12:45:25.772Z,14880.83
2023-07-22T12:46:25.806Z,37840.83
2023-07-22T12:48:25.910Z,54612.5
2023-07-22T12:50:25.735Z,12495.83
2023-07-22T12:51:25.910Z,22877.5
2023-07-22T12:52:27.831Z,22346.67
2023-07-22T12:53:32.838Z,22748.33
2023-07-22T12:55:25.758Z,19292.5
2023-07-22T12:56:25.943Z,20637.5
2023-07-22T12:57:25.805Z,19355
2023-07-22T12:58:25.765Z,20379.17
2023-07-22T12:59:25.793Z,19523.33
2023-07-22T13:01:25.970Z,19789.17
2023-07-22T13:02:25.784Z,19255.83
2023-07-22T13:03:25.813Z,20118.33
2023-07-22T13:05:25.752Z,19663.33
2023-07-22T13:06:25.752Z,22889.17
2023-07-22T13:07:25.772Z,27975
2023-07-22T13:08:25.774Z,18821.67
2023-07-22T13:10:25.746Z,29606.67
2023-07-22T13:11:26.060Z,22439.17
2023-07-22T13:12:25.752Z,34330
2023-07-22T13:13:28.154Z,25296.67
2023-07-22T13:14:31.080Z,27896.67
2023-07-22T13:16:25.844Z,17787.5
2023-07-22T13:17:25.796Z,16097.5
2023-07-22T13:18:25.789Z,14503.33
2023-07-22T13:20:25.905Z,14213.33
2023-07-22T13:22:25.753Z,19534.17
2023-07-22T13:23:25.781Z,21201.67
2023-07-22T13:24:25.876Z,20452.5
2023-07-22T13:26:25.766Z,18593.33
2023-07-22T13:27:25.753Z,18593.33
2023-07-22T13:28:25.748Z,16971.67
2023-07-22T13:29:25.767Z,17929.17
2023-07-22T13:30:25.819Z,19422.5
2023-07-22T13:32:25.786Z,19793.33
2023-07-22T13:33:25.759Z,17870.83
2023-07-22T13:34:28.158Z,17427.5
2023-07-22T13:35:31.325Z,16662.5
2023-07-22T13:37:25.753Z,17686.67
2023-07-22T13:38:25.752Z,17557.5
2023-07-22T13:39:25.746Z,16731.67
2023-07-22T13:40:25.787Z,16099.17
2023-07-22T13:42:25.764Z,16068.33
2023-07-22T13:43:25.761Z,16675.83
2023-07-22T13:44:25.755Z,17760
2023-07-22T13:45:25.783Z,17348.33
2023-07-22T13:47:25.758Z,11475.83
2023-07-22T13:48:25.755Z,11576.67
2023-07-22T13:49:25.750Z,13520.83
2023-07-22T13:50:25.781Z,11901.67
2023-07-22T13:51:26.126Z,11377.5
2023-07-22T13:53:25.754Z,13393.33
2023-07-22T13:54:25.749Z,14357.5
2023-07-22T13:55:28.272Z,13847.5
2023-07-22T13:56:31.379Z,13004.17
2023-07-22T13:58:25.759Z,9628.33
2023-07-22T13:59:25.749Z,10379.17
2023-07-22T14:00:25.748Z,12465
2023-07-22T14:01:26.108Z,13158.33
2023-07-22T14:02:25.829Z,13420.83
2023-07-22T14:04:25.745Z,14431.67
2023-07-22T14:05:25.751Z,13755.83
2023-07-22T14:06:25.752Z,13981.67
2023-07-22T14:07:25.761Z,14562.5
2023-07-22T14:08:25.753Z,14320.83
2023-07-22T14:09:25.778Z,15072.5
2023-07-22T14:10:25.755Z,14688.33
2023-07-22T14:11:26.053Z,13541.67
2023-07-22T14:12:25.854Z,11981.67
2023-07-22T14:14:25.751Z,10024.17
2023-07-22T14:15:25.760Z,11407.5
2023-07-22T14:16:28.300Z,11604.17
2023-07-22T14:17:31.446Z,11170
2023-07-22T14:19:26.006Z,11316.67
2023-07-22T14:20:25.756Z,11316.67
2023-07-22T14:22:25.750Z,11316.67
2023-07-22T14:23:25.744Z,11316.67
2023-07-22T14:24:25.745Z,11316.67
2023-07-22T14:25:25.774Z,11316.67
2023-07-22T14:26:25.757Z,11316.67
2023-07-22T14:27:25.749Z,11316.67
2023-07-22T14:28:25.746Z,11316.67
2023-07-22T14:29:25.761Z,11316.67
2023-07-22T14:30:25.750Z,11316.67
2023-07-22T14:31:26.098Z,11316.67
2023-07-22T14:32:25.800Z,11316.67
2023-07-22T14:33:25.940Z,11316.67
2023-07-22T14:35:25.759Z,11316.67
2023-07-22T14:36:25.774Z,11316.67
2023-07-22T14:37:28.441Z,11316.67
2023-07-22T14:38:31.585Z,11316.67
2023-07-22T14:40:25.749Z,11316.67
2023-07-22T14:41:26.116Z,12454.17
2023-07-22T14:42:25.753Z,11634.17
2023-07-22T14:43:25.755Z,10290.83
2023-07-22T14:44:25.758Z,8819.17
2023-07-22T14:45:25.749Z,8471.67
2023-07-22T14:46:25.773Z,8407.5
2023-07-22T14:47:25.750Z,7715.83
2023-07-22T14:48:25.781Z,7399.17
2023-07-22T14:50:25.753Z,8390.83
2023-07-22T14:51:26.246Z,8818.33
2023-07-22T14:52:25.818Z,9255
2023-07-22T14:53:25.806Z,9655.83
2023-07-22T14:54:25.902Z,9077.5
2023-07-22T14:56:25.752Z,8432.5
2023-07-22T14:57:25.765Z,9390.83
2023-07-22T14:58:28.533Z,9757.5
2023-07-22T14:59:30.976Z,9032.5
2023-07-22T15:01:26.410Z,10205.83
2023-07-22T15:02:25.777Z,9629.17
2023-07-22T15:03:25.804Z,9892.5
2023-07-22T15:04:25.775Z,9932.5
2023-07-22T15:06:25.752Z,8247.5
2023-07-22T15:07:26.191Z,7572.5
2023-07-22T15:09:25.751Z,7935.83
2023-07-22T15:10:25.771Z,8888.33
2023-07-22T15:11:25.989Z,8784.17
2023-07-22T15:13:25.774Z,7421.67
2023-07-22T15:14:25.774Z,7586.67
2023-07-22T15:15:25.772Z,7260
2023-07-22T15:16:25.835Z,7625
2023-07-22T15:18:25.884Z,9321.67
2023-07-22T15:19:28.628Z,9427.5
2023-07-22T15:20:31.547Z,10528.33
2023-07-22T15:22:25.751Z,9285.83
2023-07-22T15:23:25.766Z,9630
2023-07-22T15:24:25.780Z,9019.17
2023-07-22T15:25:25.757Z,9183.33
2023-07-22T15:26:25.909Z,9209.17
2023-07-22T15:31:32.531Z,7146.67
2023-07-22T15:33:26.008Z,6366.67
2023-07-22T15:34:25.857Z,6342.5
2023-07-22T15:35:25.775Z,5967.5
2023-07-22T15:36:25.757Z,5718.33
2023-07-22T15:37:25.750Z,5880.83
2023-07-22T15:39:25.736Z,6891.67
2023-07-22T15:40:25.751Z,7540
2023-07-22T15:41:26.134Z,7359.17
2023-07-22T15:43:25.754Z,6011.67
2023-07-22T15:44:25.787Z,6229.17
2023-07-22T15:46:25.758Z,6266.67
2023-07-22T15:47:25.879Z,6241.67
2023-07-22T15:48:25.779Z,6260
2023-07-22T15:49:25.936Z,6186.67
2023-07-22T15:50:27.756Z,6755
2023-07-22T15:51:30.961Z,7516.67
2023-07-22T15:53:25.770Z,8442.5
2023-07-22T15:54:25.755Z,8037.5
2023-07-22T15:55:25.761Z,7363.33
2023-07-22T15:56:25.759Z,6959.17
2023-07-22T15:57:25.840Z,6306.67
2023-07-22T15:59:25.758Z,6766.67
2023-07-22T16:00:25.774Z,6766.67
2023-07-22T16:01:26.105Z,6766.67
2023-07-22T16:02:25.845Z,6766.67
2023-07-22T16:03:25.867Z,6766.67
2023-07-22T16:05:25.750Z,6766.67
2023-07-22T16:06:32.383Z,6766.67
2023-07-22T16:07:25.740Z,6766.67
2023-07-22T16:08:25.794Z,6766.67
2023-07-22T16:10:25.731Z,6766.67
2023-07-22T16:11:27.631Z,6766.67
2023-07-22T16:12:30.869Z,6766.67
2023-07-22T16:14:25.761Z,6766.67
2023-07-22T16:15:25.783Z,7222.5
2023-07-22T16:17:25.802Z,6279.17
2023-07-22T16:18:25.831Z,6550.83
2023-07-22T16:20:25.758Z,5123.33
2023-07-22T16:21:26.042Z,4569.17
2023-07-22T16:22:25.747Z,4294.17
2023-07-22T16:23:25.804Z,4060.83
2023-07-22T16:24:25.863Z,3940.83
2023-07-22T16:26:25.896Z,3836.67